createdAt,value
2018-10-11T00:01:23.014Z,16.62
2018-10-11T00:03:51.231Z,16.78
2018-10-11T00:06:19.487Z,16.70
2018-10-11T00:08:47.750Z,16.71
2018-10-11T00:11:15.962Z,16.79
2018-10-11T00:13:44.193Z,16.67
2018-10-11T00:16:12.425Z,16.58
2018-10-11T00:18:40.681Z,16.58
2018-10-11T00:21:08.942Z,16.39
2018-10-11T00:23:37.398Z,16.41
2018-10-11T00:26:05.682Z,16.36
2018-10-11T00:28:33.932Z,16.39
2018-10-11T00:31:04.479Z,16.45
2018-10-11T00:33:32.771Z,16.49
2018-10-11T00:36:00.989Z,16.37
2018-10-11T00:38:29.238Z,16.53
2018-10-11T00:40:57.433Z,16.60
2018-10-11T00:43:25.683Z,16.42
2018-10-11T00:45:53.882Z,16.51
2018-10-11T00:48:22.406Z,16.31
2018-10-11T00:50:50.649Z,16.46
2018-10-11T00:53:20.007Z,16.47
2018-10-11T00:55:48.260Z,16.38
2018-10-11T00:58:16.493Z,16.38
2018-10-11T01:00:44.737Z,16.37
2018-10-11T01:03:13.003Z,16.20
2018-10-11T01:05:41.262Z,16.17
2018-10-11T01:08:09.495Z,16.13
2018-10-11T01:10:37.814Z,16.02
2018-10-11T01:13:06.398Z,16.02
2018-10-11T01:15:34.625Z,16.19
2018-10-11T01:18:02.898Z,16.22
2018-10-11T01:20:31.139Z,16.15
2018-10-11T01:22:59.392Z,16.18
2018-10-11T01:25:34.574Z,15.78
2018-10-11T01:28:02.877Z,15.75
2018-10-11T01:30:31.115Z,15.59
2018-10-11T01:32:59.367Z,15.62
2018-10-11T01:35:27.640Z,15.48
2018-10-11T01:37:55.917Z,15.61
2018-10-11T01:40:24.387Z,15.56
2018-10-11T01:43:02.366Z,15.73
2018-10-11T01:45:30.586Z,15.14
2018-10-11T01:47:58.986Z,15.12
2018-10-11T01:50:27.580Z,15.09
2018-10-11T01:52:56.623Z,15.21
2018-10-11T01:55:25.596Z,15.25
2018-10-11T01:57:54.282Z,15.34
2018-10-11T02:00:22.506Z,15.35
2018-10-11T02:02:50.729Z,15.49
2018-10-11T02:05:19.065Z,15.32
2018-10-11T02:07:47.276Z,15.33
2018-10-11T02:10:15.742Z,15.35
2018-10-11T02:12:43.995Z,14.95
2018-10-11T02:15:12.177Z,14.99
2018-10-11T02:17:40.468Z,15.13
2018-10-11T02:20:08.784Z,15.03
2018-10-11T02:22:37.083Z,15.29
2018-10-11T02:25:05.401Z,15.32
2018-10-11T02:27:33.611Z,15.20
2018-10-11T02:30:01.825Z,15.22
2018-10-11T02:32:30.052Z,15.03
2018-10-11T02:34:58.410Z,14.83
2018-10-11T02:37:26.806Z,14.67
2018-10-11T02:39:55.354Z,14.78
2018-10-11T02:42:23.599Z,14.87
2018-10-11T02:44:51.925Z,14.69
2018-10-11T02:47:20.158Z,14.86
2018-10-11T02:49:48.562Z,14.96
2018-10-11T02:52:16.881Z,14.75
2018-10-11T02:54:45.208Z,14.71
2018-10-11T02:57:24.509Z,14.63
2018-10-11T02:59:52.765Z,14.52
2018-10-11T03:02:21.134Z,14.46
2018-10-11T03:04:49.859Z,14.39
2018-10-11T03:07:18.839Z,14.35
2018-10-11T03:09:48.038Z,14.43
2018-10-11T03:12:16.613Z,14.41
2018-10-11T03:14:44.960Z,14.30
2018-10-11T03:17:13.329Z,14.31
2018-10-11T03:19:42.533Z,14.36
2018-10-11T03:22:11.332Z,14.31
2018-10-11T03:24:39.929Z,14.34
2018-10-11T03:27:08.194Z,14.52
2018-10-11T03:29:36.562Z,14.48
2018-10-11T03:32:04.832Z,14.53
2018-10-11T03:34:33.100Z,14.61
2018-10-11T03:37:01.387Z,14.63
2018-10-11T03:39:29.810Z,14.58
2018-10-11T03:41:59.067Z,14.56
2018-10-11T03:44:27.880Z,14.35
2018-10-11T03:46:56.195Z,14.45
2018-10-11T03:49:24.626Z,14.53
2018-10-11T03:51:54.041Z,14.47
2018-10-11T03:54:22.306Z,14.60
2018-10-11T03:56:50.555Z,14.62
2018-10-11T03:59:18.886Z,14.58
2018-10-11T04:01:47.274Z,14.64
2018-10-11T04:04:15.630Z,14.63
2018-10-11T04:06:43.870Z,14.44
2018-10-11T04:09:12.106Z,14.46
2018-10-11T04:11:40.362Z,14.36
2018-10-11T04:14:08.787Z,14.22
2018-10-11T04:16:37.162Z,14.29
2018-10-11T04:19:05.517Z,14.08
2018-10-11T04:21:34.850Z,13.91
2018-10-11T04:24:03.272Z,13.88
2018-10-11T04:26:31.512Z,13.96
2018-10-11T04:28:59.931Z,13.88
2018-10-11T04:31:28.165Z,13.73
2018-10-11T04:33:56.504Z,13.76
2018-10-11T04:36:24.791Z,13.84
2018-10-11T04:38:53.208Z,13.96
2018-10-11T04:41:21.537Z,13.86
2018-10-11T04:43:49.798Z,13.85
2018-10-11T04:46:18.153Z,14.00
2018-10-11T04:48:46.445Z,14.13
2018-10-11T04:51:14.683Z,14.06
2018-10-11T04:53:44.247Z,14.14
2018-10-11T04:56:12.447Z,14.24
2018-10-11T04:58:40.688Z,14.10
2018-10-11T05:01:08.899Z,14.15
2018-10-11T05:03:37.115Z,13.91
2018-10-11T05:06:05.371Z,13.87
2018-10-11T05:08:33.613Z,13.86
2018-10-11T05:11:02.023Z,14.10
2018-10-11T05:13:38.769Z,13.94
2018-10-11T05:16:07.217Z,14.07
2018-10-11T05:18:35.528Z,14.13
2018-10-11T05:21:03.800Z,13.78
2018-10-11T05:23:32.032Z,13.80
2018-10-11T05:26:00.390Z,13.94
2018-10-11T05:28:28.555Z,14.01
2018-10-11T05:30:56.900Z,14.03
2018-10-11T05:33:25.438Z,13.64
2018-10-11T05:35:53.749Z,13.65
2018-10-11T05:38:21.961Z,13.63
2018-10-11T05:40:50.176Z,13.86
2018-10-11T05:43:18.463Z,13.81
2018-10-11T05:45:57.245Z,13.89
2018-10-11T05:48:26.626Z,13.94
2018-10-11T05:50:55.135Z,13.85
2018-10-11T05:53:23.830Z,13.72
2018-10-11T05:55:52.072Z,13.63
2018-10-11T05:58:20.759Z,13.78
2018-10-11T06:00:49.515Z,13.76
2018-10-11T06:03:17.825Z,13.79
2018-10-11T06:05:46.080Z,13.75
2018-10-11T06:08:14.346Z,13.82
2018-10-11T06:10:43.777Z,13.74
2018-10-11T06:13:12.649Z,13.87
2018-10-11T06:15:41.341Z,13.90
2018-10-11T06:18:10.258Z,14.10
2018-10-11T06:20:38.537Z,14.05
2018-10-11T06:23:06.825Z,14.00
2018-10-11T06:25:35.072Z,14.23
2018-10-11T06:28:03.924Z,14.26
2018-10-11T06:30:33.349Z,14.28
2018-10-11T06:33:01.634Z,14.32
2018-10-11T06:35:29.922Z,14.49
2018-10-11T06:37:58.818Z,14.57
2018-10-11T06:40:27.101Z,14.64
2018-10-11T06:42:55.421Z,14.75
2018-10-11T06:45:23.679Z,14.73
2018-10-11T06:47:54.431Z,14.85
2018-10-11T06:50:22.720Z,14.99
2018-10-11T06:52:52.975Z,15.09
2018-10-11T06:55:21.169Z,15.34
2018-10-11T06:57:49.396Z,15.28
2018-10-11T07:00:24.242Z,15.06
2018-10-11T07:02:52.470Z,15.17
2018-10-11T07:05:22.724Z,15.59
2018-10-11T07:07:50.945Z,16.02
2018-10-11T07:10:19.186Z,15.85
2018-10-11T07:12:47.909Z,16.36
2018-10-11T07:15:16.797Z,16.31
2018-10-11T07:17:45.112Z,16.35
2018-10-11T07:20:13.405Z,17.07
2018-10-11T07:22:41.946Z,17.56
2018-10-11T07:25:10.388Z,17.76
2018-10-11T07:27:38.623Z,18.07
2018-10-11T07:30:07.314Z,18.08
2018-10-11T07:32:35.547Z,17.76
2018-10-11T07:35:03.994Z,18.18
2018-10-11T07:37:32.121Z,18.35
2018-10-11T07:40:00.376Z,18.01
2018-10-11T07:42:28.622Z,17.58
2018-10-11T07:44:56.871Z,18.52
2018-10-11T07:47:25.161Z,18.79
2018-10-11T07:49:53.398Z,18.49
2018-10-11T07:52:21.638Z,18.49
2018-10-11T07:54:53.582Z,18.82
2018-10-11T07:57:21.788Z,18.82
2018-10-11T07:59:50.071Z,19.43
2018-10-11T08:02:18.342Z,18.93
2018-10-11T08:04:46.690Z,19.70
2018-10-11T08:07:14.974Z,19.49
2018-10-11T08:09:43.238Z,19.36
2018-10-11T08:12:11.454Z,19.17
2018-10-11T08:14:39.725Z,19.41
2018-10-11T08:17:08.367Z,19.22
2018-10-11T08:19:36.308Z,20.51
2018-10-11T08:22:05.671Z,19.14
2018-10-11T08:24:33.935Z,20.02
2018-10-11T08:27:02.188Z,20.06
2018-10-11T08:29:30.411Z,21.09
2018-10-11T08:31:58.653Z,20.44
2018-10-11T08:34:26.906Z,20.06
2018-10-11T08:36:55.114Z,20.26
2018-10-11T08:39:27.066Z,20.33
2018-10-11T08:41:55.345Z,19.93
2018-10-11T08:44:23.558Z,19.85
2018-10-11T08:46:55.207Z,19.96
2018-10-11T08:49:23.451Z,19.70
2018-10-11T08:51:51.777Z,20.13
2018-10-11T08:54:25.393Z,19.75
2018-10-11T08:56:53.622Z,19.98
2018-10-11T08:59:22.033Z,19.73
2018-10-11T09:01:50.167Z,20.00
2018-10-11T09:04:21.514Z,20.38
2018-10-11T09:06:49.751Z,20.22
2018-10-11T09:09:17.989Z,20.14
2018-10-11T09:11:46.214Z,19.98
2018-10-11T09:14:14.458Z,19.98
2018-10-11T09:16:42.750Z,20.30
2018-10-11T09:19:10.990Z,20.28
2018-10-11T09:21:39.245Z,20.30
2018-10-11T09:24:07.521Z,20.20
2018-10-11T09:26:35.855Z,20.30
2018-10-11T09:29:04.075Z,20.39
2018-10-11T09:31:32.310Z,20.47
2018-10-11T09:34:00.546Z,20.49
2018-10-11T09:36:29.044Z,20.80
2018-10-11T09:38:57.217Z,20.92
2018-10-11T09:41:25.418Z,20.09
2018-10-11T09:43:53.687Z,20.29
2018-10-11T09:46:21.893Z,20.34
2018-10-11T09:48:50.269Z,20.40
2018-10-11T09:51:18.394Z,20.63
2018-10-11T09:53:46.742Z,20.80
2018-10-11T09:56:15.062Z,20.76
2018-10-11T09:58:43.309Z,20.65
2018-10-11T10:01:16.885Z,20.75
2018-10-11T10:03:45.147Z,20.75
2018-10-11T10:06:13.506Z,20.77
2018-10-11T10:08:42.775Z,20.94
2018-10-11T10:11:11.017Z,20.88
2018-10-11T10:13:39.256Z,20.83
2018-10-11T10:16:07.537Z,20.86
2018-10-11T10:18:35.833Z,20.78
2018-10-11T10:21:04.064Z,21.05
2018-10-11T10:23:32.291Z,20.99
2018-10-11T10:26:00.497Z,21.08
2018-10-11T10:28:28.698Z,21.29
2018-10-11T10:30:56.947Z,21.55
2018-10-11T10:33:25.900Z,21.63
2018-10-11T10:35:54.113Z,21.69
2018-10-11T10:38:23.296Z,21.72
2018-10-11T10:40:51.696Z,21.74
2018-10-11T10:43:20.063Z,21.75
2018-10-11T10:45:48.348Z,21.77
2018-10-11T10:48:16.572Z,21.81
2018-10-11T10:50:44.897Z,21.66
2018-10-11T10:53:13.110Z,21.80
2018-10-11T10:55:43.563Z,21.92
2018-10-11T10:58:11.756Z,21.73
2018-10-11T11:00:40.027Z,21.62
2018-10-11T11:03:08.258Z,21.67
2018-10-11T11:05:36.684Z,21.55
2018-10-11T11:08:04.942Z,21.42
2018-10-11T11:10:34.831Z,21.55
2018-10-11T11:13:03.089Z,21.60
2018-10-11T11:15:33.342Z,21.68
2018-10-11T11:18:02.668Z,21.77
2018-10-11T11:20:31.021Z,21.88
2018-10-11T11:22:59.338Z,21.81
2018-10-11T11:25:27.647Z,22.00
2018-10-11T11:27:57.990Z,21.86
2018-10-11T11:30:26.217Z,21.77
2018-10-11T11:32:54.738Z,21.85
2018-10-11T11:35:22.950Z,21.84
2018-10-11T11:37:51.191Z,22.06
2018-10-11T11:40:19.479Z,22.22
2018-10-11T11:42:47.685Z,22.26
2018-10-11T11:45:15.893Z,22.34
2018-10-11T11:47:44.108Z,22.23
2018-10-11T11:50:18.298Z,22.28
2018-10-11T11:52:46.580Z,22.24
2018-10-11T11:55:14.786Z,22.19
2018-10-11T11:57:43.030Z,22.45
2018-10-11T12:00:11.270Z,22.34
2018-10-11T12:02:39.512Z,22.09
2018-10-11T12:05:07.852Z,22.06
2018-10-11T12:07:39.677Z,22.07
2018-10-11T12:10:09.006Z,22.07
2018-10-11T12:12:54.832Z,22.07
2018-10-11T12:15:24.857Z,21.91
2018-10-11T12:17:58.075Z,21.97
2018-10-11T12:20:27.714Z,21.90
2018-10-11T12:23:00.180Z,21.67
2018-10-11T12:25:29.789Z,21.91
2018-10-11T12:27:59.165Z,21.88
2018-10-11T12:30:29.219Z,21.80
2018-10-11T12:32:57.503Z,21.74
2018-10-11T12:35:26.181Z,21.76
2018-10-11T12:37:54.420Z,21.94
2018-10-11T12:40:23.508Z,21.86
2018-10-11T12:42:50.963Z,21.92
2018-10-11T12:45:19.539Z,22.10
2018-10-11T12:47:47.863Z,22.17
2018-10-11T12:50:16.082Z,22.07
2018-10-11T12:52:44.357Z,21.94
2018-10-11T12:55:12.714Z,21.94
2018-10-11T12:57:41.132Z,21.92
2018-10-11T13:00:13.134Z,21.94
2018-10-11T13:02:41.420Z,21.95
2018-10-11T13:05:09.615Z,21.97
2018-10-11T13:07:37.817Z,21.95
2018-10-11T13:10:06.109Z,22.05
2018-10-11T13:12:34.478Z,22.18
2018-10-11T13:15:03.015Z,22.09
2018-10-11T13:17:42.813Z,22.17
2018-10-11T13:20:07.835Z,22.23
2018-10-11T13:22:36.046Z,22.26
2018-10-11T13:25:04.330Z,22.25
2018-10-11T13:27:32.657Z,22.37
2018-10-11T13:30:02.045Z,22.42
2018-10-11T13:32:30.515Z,22.44
2018-10-11T13:34:58.770Z,22.39
2018-10-11T13:37:26.940Z,22.43
2018-10-11T13:39:57.690Z,22.46
2018-10-11T13:42:23.369Z,22.40
2018-10-11T13:44:51.590Z,22.33
2018-10-11T13:47:19.896Z,22.43
2018-10-11T13:49:48.064Z,22.42
2018-10-11T13:52:19.285Z,22.43
2018-10-11T13:54:45.403Z,22.40
2018-10-11T13:57:13.659Z,22.41
2018-10-11T13:59:41.875Z,22.34
2018-10-11T14:02:10.093Z,22.46
2018-10-11T14:04:38.358Z,22.56
2018-10-11T14:07:06.571Z,22.75
2018-10-11T14:09:34.828Z,22.80
2018-10-11T14:12:03.050Z,22.94
2018-10-11T14:14:31.441Z,22.88
2018-10-11T14:16:59.697Z,22.93
2018-10-11T14:19:27.942Z,22.98
2018-10-11T14:21:56.137Z,23.07
2018-10-11T14:24:24.378Z,22.97
2018-10-11T14:26:52.622Z,22.86
2018-10-11T14:29:20.845Z,22.97
2018-10-11T14:31:49.061Z,23.07
2018-10-11T14:34:17.287Z,23.03
2018-10-11T14:36:45.639Z,22.97
2018-10-11T14:39:13.778Z,22.96
2018-10-11T14:41:41.989Z,22.96
2018-10-11T14:44:10.198Z,22.91
2018-10-11T14:46:38.433Z,22.88
2018-10-11T14:49:06.734Z,22.90
2018-10-11T14:51:34.928Z,22.84
2018-10-11T14:54:03.187Z,22.85
2018-10-11T14:56:31.356Z,22.90
2018-10-11T14:58:59.593Z,22.93
2018-10-11T15:01:27.812Z,22.89
2018-10-11T15:03:56.041Z,23.04
2018-10-11T15:06:24.242Z,23.04
2018-10-11T15:08:52.492Z,22.95
2018-10-11T15:11:20.864Z,22.91
2018-10-11T15:13:49.041Z,22.88
2018-10-11T15:16:17.248Z,22.78
2018-10-11T15:18:45.466Z,22.85
2018-10-11T15:21:13.658Z,22.88
2018-10-11T15:23:41.858Z,22.84
2018-10-11T15:26:10.145Z,22.95
2018-10-11T15:28:38.369Z,22.82
2018-10-11T15:31:06.705Z,22.68
2018-10-11T15:33:34.928Z,22.74
2018-10-11T15:36:03.136Z,22.68
2018-10-11T15:38:31.362Z,22.81
2018-10-11T15:40:59.614Z,22.84
2018-10-11T15:43:27.846Z,22.88
2018-10-11T15:45:56.057Z,22.92
2018-10-11T15:48:24.304Z,22.91
2018-10-11T15:50:52.496Z,22.84
2018-10-11T15:53:20.737Z,22.77
2018-10-11T15:55:48.952Z,22.91
2018-10-11T15:58:17.224Z,22.87
2018-10-11T16:00:46.009Z,22.94
2018-10-11T16:03:14.237Z,22.73
2018-10-11T16:05:42.582Z,22.77
2018-10-11T16:08:10.752Z,22.80
2018-10-11T16:10:38.960Z,22.76
2018-10-11T16:13:07.168Z,22.68
2018-10-11T16:15:35.398Z,22.69
2018-10-11T16:18:03.607Z,22.73
2018-10-11T16:20:31.825Z,22.66
2018-10-11T16:23:00.052Z,22.63
2018-10-11T16:25:28.270Z,22.66
2018-10-11T16:27:56.465Z,22.56
2018-10-11T16:30:24.718Z,22.45
2018-10-11T16:32:52.924Z,22.40
2018-10-11T16:35:21.155Z,22.43
2018-10-11T16:37:49.354Z,22.35
2018-10-11T16:40:17.593Z,22.27
2018-10-11T16:42:45.865Z,22.21
2018-10-11T16:45:14.121Z,22.17
2018-10-11T16:47:43.578Z,22.07
2018-10-11T16:50:11.821Z,21.99
2018-10-11T16:52:42.065Z,21.94
2018-10-11T16:55:10.267Z,21.98
2018-10-11T16:57:38.553Z,21.87
2018-10-11T17:00:07.074Z,21.84
2018-10-11T17:02:35.387Z,21.66
2018-10-11T17:05:03.661Z,21.76
2018-10-11T17:07:31.918Z,21.80
2018-10-11T17:10:00.249Z,21.74
2018-10-11T17:12:28.421Z,21.72
2018-10-11T17:14:56.642Z,21.63
2018-10-11T17:17:24.847Z,21.58
2018-10-11T17:19:53.082Z,21.51
2018-10-11T17:22:21.332Z,21.56
2018-10-11T17:24:49.618Z,21.55
2018-10-11T17:27:17.821Z,21.45
2018-10-11T17:29:46.119Z,21.44
2018-10-11T17:32:14.292Z,21.58
2018-10-11T17:34:42.565Z,21.40
2018-10-11T17:37:10.857Z,21.40
2018-10-11T17:39:39.065Z,21.35
2018-10-11T17:42:07.315Z,21.28
2018-10-11T17:44:35.512Z,21.32
2018-10-11T17:47:03.799Z,21.12
2018-10-11T17:49:36.377Z,21.23
2018-10-11T17:52:04.610Z,21.19
2018-10-11T17:54:32.846Z,21.21
2018-10-11T17:57:01.069Z,21.11
2018-10-11T17:59:29.331Z,21.09
2018-10-11T18:01:57.542Z,21.06
2018-10-11T18:04:25.744Z,20.99
2018-10-11T18:06:53.969Z,20.91
2018-10-11T18:09:23.266Z,20.92
2018-10-11T18:11:51.518Z,20.84
2018-10-11T18:14:19.731Z,20.87
2018-10-11T18:16:47.970Z,20.88
2018-10-11T18:19:16.230Z,20.75
2018-10-11T18:21:44.506Z,20.80
2018-10-11T18:24:12.665Z,20.70
2018-10-11T18:26:40.944Z,20.65
2018-10-11T18:29:09.716Z,20.60
2018-10-11T18:31:38.952Z,20.67
2018-10-11T18:34:07.337Z,20.45
2018-10-11T18:36:35.622Z,20.41
2018-10-11T18:39:05.188Z,20.47
2018-10-11T18:41:33.397Z,20.39
2018-10-11T18:44:01.621Z,20.45
2018-10-11T18:46:29.873Z,20.45
2018-10-11T18:48:58.102Z,20.44
2018-10-11T18:51:26.316Z,20.37
2018-10-11T18:53:54.532Z,20.38
2018-10-11T18:56:22.769Z,20.35
2018-10-11T18:58:51.001Z,20.25
2018-10-11T19:01:19.207Z,20.12
2018-10-11T19:03:47.447Z,20.13
2018-10-11T19:06:16.791Z,20.15
2018-10-11T19:08:44.953Z,19.97
2018-10-11T19:11:13.177Z,20.01
2018-10-11T19:13:41.440Z,19.92
2018-10-11T19:16:09.929Z,19.92
2018-10-11T19:18:38.145Z,19.95
2018-10-11T19:21:06.419Z,19.95
2018-10-11T19:23:34.703Z,19.94
2018-10-11T19:26:02.989Z,20.00
2018-10-11T19:28:31.403Z,20.04
2018-10-11T19:30:59.746Z,20.05
2018-10-11T19:33:28.109Z,19.97
2018-10-11T19:35:56.418Z,19.96
2018-10-11T19:38:24.637Z,19.96
2018-10-11T19:40:52.868Z,19.92
2018-10-11T19:43:21.062Z,19.79
2018-10-11T19:45:49.272Z,19.73
2018-10-11T19:48:17.791Z,19.58
2018-10-11T19:50:46.066Z,19.66
2018-10-11T19:53:14.264Z,19.56
2018-10-11T19:55:42.508Z,19.44
2018-10-11T19:58:10.761Z,19.49
2018-10-11T20:00:38.997Z,19.35
2018-10-11T20:03:07.202Z,19.39
2018-10-11T20:05:35.417Z,19.32
2018-10-11T20:08:03.716Z,19.41
2018-10-11T20:10:31.888Z,19.35
2018-10-11T20:13:00.132Z,19.42
2018-10-11T20:15:28.359Z,19.37
2018-10-11T20:17:56.556Z,19.43
2018-10-11T20:20:24.816Z,19.33
2018-10-11T20:22:53.058Z,19.32
2018-10-11T20:25:21.261Z,19.17
2018-10-11T20:27:49.460Z,19.30
2018-10-11T20:30:17.682Z,19.34
2018-10-11T20:32:45.890Z,19.31
2018-10-11T20:35:14.131Z,19.36
2018-10-11T20:37:42.373Z,19.32
2018-10-11T20:40:10.582Z,19.17
2018-10-11T20:42:38.792Z,19.19
2018-10-11T20:45:07.038Z,19.20
2018-10-11T20:47:35.353Z,19.22
2018-10-11T20:50:03.643Z,19.24
2018-10-11T20:52:31.886Z,19.31
2018-10-11T20:55:00.120Z,19.21
2018-10-11T20:57:28.402Z,19.24
2018-10-11T20:59:56.542Z,19.20
2018-10-11T21:02:24.765Z,19.19
2018-10-11T21:04:52.978Z,19.15
2018-10-11T21:07:21.200Z,19.05
2018-10-11T21:09:49.425Z,19.07
2018-10-11T21:12:17.633Z,19.05
2018-10-11T21:14:45.868Z,18.92
2018-10-11T21:17:14.131Z,18.88
2018-10-11T21:19:42.367Z,19.00
2018-10-11T21:22:10.570Z,18.92
2018-10-11T21:24:38.777Z,18.82
2018-10-11T21:27:07.074Z,18.94
2018-10-11T21:29:35.308Z,18.98
2018-10-11T21:32:03.534Z,18.91
2018-10-11T21:34:31.809Z,18.73
2018-10-11T21:36:59.966Z,18.89
2018-10-11T21:39:28.170Z,18.82
2018-10-11T21:41:56.397Z,18.74
2018-10-11T21:44:24.622Z,18.81
2018-10-11T21:46:52.845Z,18.85
2018-10-11T21:49:21.046Z,18.82
2018-10-11T21:51:49.260Z,18.79
2018-10-11T21:54:17.461Z,18.76
2018-10-11T21:56:45.677Z,18.70
2018-10-11T21:59:13.909Z,18.79
2018-10-11T22:01:42.117Z,18.78
2018-10-11T22:04:10.365Z,18.65
2018-10-11T22:06:38.604Z,18.54
2018-10-11T22:09:07.378Z,18.55
2018-10-11T22:11:39.142Z,18.58
2018-10-11T22:14:07.365Z,18.56
2018-10-11T22:16:35.574Z,18.63
2018-10-11T22:19:03.861Z,18.64
2018-10-11T22:21:32.100Z,18.65
2018-10-11T22:24:00.369Z,18.61
2018-10-11T22:26:28.565Z,18.58
2018-10-11T22:28:56.764Z,18.45
2018-10-11T22:31:25.012Z,18.54
2018-10-11T22:33:53.261Z,18.49
2018-10-11T22:36:22.393Z,18.46
2018-10-11T22:38:50.661Z,18.55
2018-10-11T22:41:18.916Z,18.55
2018-10-11T22:43:47.393Z,18.41
2018-10-11T22:46:15.670Z,18.38
2018-10-11T22:48:43.925Z,18.38
2018-10-11T22:51:12.349Z,18.40
2018-10-11T22:53:40.845Z,18.26
2018-10-11T22:56:09.115Z,18.30
2018-10-11T22:58:37.344Z,18.24
2018-10-11T23:01:06.735Z,18.31
2018-10-11T23:03:34.927Z,18.23
2018-10-11T23:06:03.171Z,18.37
2018-10-11T23:08:31.396Z,18.21
2018-10-11T23:10:59.601Z,18.17
2018-10-11T23:13:27.800Z,18.14
2018-10-11T23:15:56.029Z,18.21
2018-10-11T23:18:24.248Z,18.21
2018-10-11T23:20:52.489Z,18.24
2018-10-11T23:23:20.688Z,18.28
2018-10-11T23:25:48.933Z,18.35
2018-10-11T23:28:17.117Z,18.31
2018-10-11T23:30:45.349Z,18.18
2018-10-11T23:33:13.577Z,18.20
2018-10-11T23:35:41.827Z,18.23
2018-10-11T23:38:10.049Z,18.18
2018-10-11T23:40:38.292Z,18.27
2018-10-11T23:43:06.772Z,18.26
2018-10-11T23:45:34.973Z,18.29
2018-10-11T23:48:03.214Z,18.32
2018-10-11T23:50:31.441Z,18.29
2018-10-11T23:52:59.671Z,18.25
2018-10-11T23:55:27.934Z,18.22
2018-10-11T23:57:56.187Z,18.19
